Time;durP1;ratioP1;P1;durP2;ratioP2;P2;SDS_P1;SDS_P2;PMS_P1;PMS_P2;Temp;Humidity;BMP_temperature;BMP_pressure;BME280_temperature;BME280_humidity;BME280_pressure;Samples;Min_cycle;Max_cycle;Signal;HPM_P1;HPM_P2
2021/09/29 00:01:55;;;;;;;5.30;2.43;;;11.50;99.90;;;;;;5042606;28;20219;-51
2021/09/29 00:04:23;;;;;;;3.87;2.00;;;11.50;99.90;;;;;;5035625;28;20203;-56
2021/09/29 00:06:50;;;;;;;3.20;2.67;;;11.40;99.90;;;;;;5041842;28;20203;-54
2021/09/29 00:09:16;;;;;;;4.77;2.17;;;11.40;99.90;;;;;;5041463;28;20251;-55
2021/09/29 00:11:43;;;;;;;6.50;2.20;;;11.40;99.90;;;;;;5040546;28;20187;-52
2021/09/29 00:14:10;;;;;;;7.23;2.53;;;11.40;99.90;;;;;;5043397;28;20203;-52
2021/09/29 00:16:36;;;;;;;3.67;2.10;;;11.40;99.90;;;;;;5031012;28;20203;-58
2021/09/29 00:19:03;;;;;;;2.37;2.17;;;11.40;99.90;;;;;;5036901;28;20590;-57
2021/09/29 00:21:31;;;;;;;5.40;2.10;;;11.30;99.90;;;;;;5039685;28;20204;-56
2021/09/29 00:23:58;;;;;;;5.53;2.30;;;11.30;99.90;;;;;;5042611;28;20307;-52
2021/09/29 00:26:24;;;;;;;3.33;2.30;;;11.30;99.90;;;;;;5039486;28;20203;-57
2021/09/29 00:28:51;;;;;;;5.30;2.70;;;11.30;99.90;;;;;;5045234;28;20238;-54
2021/09/29 00:31:26;;;;;;;2.83;1.90;;;11.30;99.90;;;;;;5032119;28;20699;-55
2021/09/29 00:34:00;;;;;;;3.87;2.37;;;11.20;99.90;;;;;;5045880;28;20683;-51
2021/09/29 00:36:27;;;;;;;4.97;2.20;;;11.30;99.90;;;;;;5035344;28;20214;-57
2021/09/29 00:38:55;;;;;;;2.83;1.70;;;11.20;99.90;;;;;;5045933;28;20576;-54
2021/09/29 00:41:21;;;;;;;4.13;2.03;;;11.20;99.90;;;;;;5043944;28;20222;-57
2021/09/29 00:43:48;;;;;;;2.47;1.97;;;11.20;99.90;;;;;;5044945;28;20199;-50
2021/09/29 00:46:15;;;;;;;3.47;2.30;;;11.20;99.90;;;;;;5031349;28;20212;-55
2021/09/29 00:48:41;;;;;;;3.30;2.47;;;11.10;99.90;;;;;;5043055;28;20218;-55
2021/09/29 00:51:10;;;;;;;3.40;2.30;;;11.10;99.90;;;;;;5037039;28;20218;-54
2021/09/29 00:53:37;;;;;;;4.70;2.00;;;11.10;99.90;;;;;;5042231;28;20258;-54
2021/09/29 00:56:05;;;;;;;4.10;2.20;;;11.10;99.90;;;;;;5047212;28;20199;-56
2021/09/29 00:58:32;;;;;;;3.13;2.00;;;11.10;99.90;;;;;;5043877;28;20212;-56
2021/09/29 01:00:59;;;;;;;2.57;1.90;;;11.00;99.90;;;;;;5033991;28;20211;-52
2021/09/29 01:03:26;;;;;;;4.23;2.27;;;11.00;99.90;;;;;;5035663;28;20234;-58
2021/09/29 01:05:55;;;;;;;3.07;2.30;;;10.90;99.90;;;;;;5037513;28;20195;-54
2021/09/29 01:08:29;;;;;;;2.73;2.40;;;10.90;99.90;;;;;;5042585;28;20227;-59
2021/09/29 01:11:03;;;;;;;4.07;3.07;;;10.90;99.90;;;;;;5039705;28;20203;-52
2021/09/29 01:13:40;;;;;;;6.03;2.03;;;10.90;99.90;;;;;;5041696;28;20202;-60
2021/09/29 01:16:10;;;;;;;3.93;2.00;;;10.80;99.90;;;;;;5045821;28;20217;-54
2021/09/29 01:18:42;;;;;;;4.00;2.20;;;10.80;99.90;;;;;;5030654;28;20211;-58
2021/09/29 01:21:12;;;;;;;2.10;1.90;;;10.80;99.90;;;;;;5039666;28;20558;-52
2021/09/29 01:23:52;;;;;;;4.23;2.70;;;10.80;99.90;;;;;;5035634;28;21613;-51
2021/09/29 01:26:22;;;;;;;6.87;2.37;;;10.80;99.90;;;;;;5043091;28;20199;-54
2021/09/29 01:28:52;;;;;;;2.80;2.13;;;10.70;99.90;;;;;;5038497;28;20910;-53
2021/09/29 01:31:20;;;;;;;4.57;2.47;;;10.70;99.90;;;;;;5043583;28;20195;-55
2021/09/29 01:33:47;;;;;;;4.63;2.60;;;10.70;99.90;;;;;;5029599;28;20203;-55
2021/09/29 01:36:16;;;;;;;3.07;2.37;;;10.70;99.90;;;;;;5035822;28;20203;-55
2021/09/29 01:38:43;;;;;;;4.40;2.70;;;10.70;99.90;;;;;;5041695;28;20207;-55
2021/09/29 01:41:10;;;;;;;5.27;2.30;;;10.70;99.90;;;;;;5044945;28;20695;-56
2021/09/29 01:43:38;;;;;;;2.40;2.13;;;10.70;99.90;;;;;;5041399;28;20202;-51
2021/09/29 01:46:06;;;;;;;3.77;2.23;;;10.70;99.90;;;;;;5045119;28;20203;-52
2021/09/29 01:48:33;;;;;;;2.73;2.33;;;10.70;99.90;;;;;;5026265;28;20230;-53
2021/09/29 01:51:02;;;;;;;6.63;2.90;;;10.70;99.90;;;;;;5044785;28;20206;-55
2021/09/29 01:53:33;;;;;;;4.33;2.33;;;10.70;99.90;;;;;;5033480;28;20333;-54
2021/09/29 01:56:00;;;;;;;2.97;2.20;;;10.70;99.90;;;;;;5041197;28;20209;-55
2021/09/29 01:58:31;;;;;;;2.97;2.47;;;10.60;99.90;;;;;;5041236;28;20219;-54
2021/09/29 02:00:59;;;;;;;6.00;2.53;;;10.60;99.90;;;;;;5038988;28;20227;-51
2021/09/29 02:03:26;;;;;;;4.23;2.13;;;10.60;99.90;;;;;;5041422;28;20223;-57
2021/09/29 02:05:53;;;;;;;2.57;2.37;;;10.50;99.90;;;;;;5030240;28;20214;-55
2021/09/29 02:08:20;;;;;;;7.13;2.67;;;10.60;99.90;;;;;;5035530;28;20590;-54
2021/09/29 02:10:47;;;;;;;4.63;2.33;;;10.50;99.90;;;;;;5045381;28;20199;-48
2021/09/29 02:13:13;;;;;;;3.67;2.40;;;10.50;99.90;;;;;;5043921;28;20645;-57
2021/09/29 02:15:40;;;;;;;6.90;2.57;;;10.50;99.90;;;;;;5041442;28;20199;-55
2021/09/29 02:18:08;;;;;;;5.03;2.50;;;10.50;99.90;;;;;;5043456;28;20588;-48
2021/09/29 02:20:34;;;;;;;4.80;2.73;;;10.50;99.90;;;;;;5020216;28;20207;-52
2021/09/29 02:23:01;;;;;;;4.17;2.60;;;10.50;99.90;;;;;;5036375;28;20222;-52
2021/09/29 02:25:28;;;;;;;4.23;2.20;;;10.50;99.90;;;;;;5033922;28;20560;-57
2021/09/29 02:27:54;;;;;;;4.63;2.00;;;10.50;99.90;;;;;;5037414;28;20197;-57
2021/09/29 02:30:22;;;;;;;6.07;2.37;;;10.50;99.90;;;;;;5041719;28;20211;-59
2021/09/29 02:32:49;;;;;;;3.40;2.17;;;10.40;99.90;;;;;;5042937;28;20194;-53
2021/09/29 02:35:17;;;;;;;3.70;2.50;;;10.40;99.90;;;;;;5042228;28;20214;-58
2021/09/29 02:37:44;;;;;;;3.20;2.10;;;10.40;99.90;;;;;;5016704;28;20660;-49
2021/09/29 02:40:11;;;;;;;6.87;2.60;;;10.40;99.90;;;;;;5043677;28;20195;-58
2021/09/29 02:42:37;;;;;;;3.90;2.40;;;10.30;99.90;;;;;;5040583;28;20968;-51
2021/09/29 02:45:05;;;;;;;3.30;2.60;;;10.30;99.90;;;;;;5044003;28;20199;-52
2021/09/29 02:47:32;;;;;;;2.47;2.27;;;10.30;99.90;;;;;;5039648;28;20202;-49
2021/09/29 02:49:58;;;;;;;5.20;2.40;;;10.30;99.90;;;;;;5044820;28;20231;-56
2021/09/29 02:52:26;;;;;;;5.07;2.50;;;10.30;99.90;;;;;;5031544;28;20199;-52
2021/09/29 02:54:53;;;;;;;4.43;2.50;;;10.30;99.90;;;;;;5034416;28;20207;-55
2021/09/29 02:57:20;;;;;;;4.80;2.67;;;10.30;99.90;;;;;;5041511;28;20199;-53
2021/09/29 02:59:46;;;;;;;5.90;2.80;;;10.30;99.90;;;;;;5041755;28;20211;-52
2021/09/29 03:02:13;;;;;;;3.67;2.30;;;10.30;99.90;;;;;;5043489;28;20211;-50
2021/09/29 03:04:39;;;;;;;3.20;2.17;;;10.30;99.90;;;;;;5041477;28;20223;-52
2021/09/29 03:07:06;;;;;;;4.67;2.50;;;10.30;99.90;;;;;;5045026;28;20208;-56
2021/09/29 03:09:34;;;;;;;3.60;2.23;;;10.30;99.90;;;;;;5024490;28;20242;-55
2021/09/29 03:12:01;;;;;;;4.53;2.57;;;10.30;99.90;;;;;;5045111;28;20218;-56
2021/09/29 03:14:27;;;;;;;3.53;2.50;;;10.30;99.90;;;;;;5040604;28;20207;-55
2021/09/29 03:16:54;;;;;;;5.63;3.50;;;10.30;99.90;;;;;;5045020;28;20715;-56
2021/09/29 03:19:21;;;;;;;5.87;2.33;;;10.30;99.90;;;;;;5042888;28;20215;-52
2021/09/29 03:21:47;;;;;;;6.10;3.13;;;10.30;99.90;;;;;;5044338;28;20305;-57
2021/09/29 03:24:18;;;;;;;5.40;3.00;;;10.30;99.90;;;;;;5031295;28;20578;-50
2021/09/29 03:26:47;;;;;;;4.17;2.50;;;10.20;99.90;;;;;;5038393;28;20187;-54
2021/09/29 03:29:14;;;;;;;5.77;2.70;;;10.20;99.90;;;;;;5044094;28;20242;-54
2021/09/29 03:31:40;;;;;;;3.20;2.23;;;10.20;99.90;;;;;;5042635;28;20434;-56
2021/09/29 03:34:07;;;;;;;2.20;2.00;;;10.20;99.90;;;;;;5044222;28;20195;-58
2021/09/29 03:36:33;;;;;;;3.70;2.20;;;10.20;99.90;;;;;;5040819;28;20191;-58
2021/09/29 03:39:00;;;;;;;4.47;2.97;;;10.20;99.90;;;;;;5032433;28;20227;-53
2021/09/29 03:41:27;;;;;;;10.40;2.80;;;10.20;99.90;;;;;;5030481;28;20846;-57
2021/09/29 03:43:55;;;;;;;5.57;2.60;;;10.20;99.90;;;;;;5038598;28;20219;-56
2021/09/29 03:46:22;;;;;;;3.03;2.53;;;10.20;99.90;;;;;;5042444;28;20192;-57
2021/09/29 03:48:48;;;;;;;5.10;2.67;;;10.20;99.90;;;;;;5044966;28;20219;-55
2021/09/29 03:51:16;;;;;;;4.60;2.70;;;10.20;99.90;;;;;;5040986;28;20202;-56
2021/09/29 03:53:43;;;;;;;3.63;2.80;;;10.30;99.90;;;;;;5044875;28;20207;-58
2021/09/29 03:56:10;;;;;;;6.57;2.80;;;10.30;99.90;;;;;;5020391;28;20199;-57
2021/09/29 03:58:36;;;;;;;6.80;3.37;;;10.30;99.90;;;;;;5042800;28;20222;-50
2021/09/29 04:01:04;;;;;;;8.37;3.10;;;10.30;99.90;;;;;;5038761;28;20565;-56
2021/09/29 04:03:31;;;;;;;6.83;3.03;;;10.30;99.90;;;;;;5046163;28;20222;-56
2021/09/29 04:05:57;;;;;;;4.13;2.80;;;10.30;99.90;;;;;;5039845;28;20199;-57
2021/09/29 04:08:24;;;;;;;3.67;2.70;;;10.40;99.90;;;;;;5044655;28;20211;-55
2021/09/29 04:10:51;;;;;;;3.57;2.77;;;10.40;99.90;;;;;;5038400;28;20441;-53
2021/09/29 04:13:18;;;;;;;6.07;2.50;;;10.40;99.90;;;;;;5037732;28;20270;-54
2021/09/29 04:15:44;;;;;;;5.53;3.07;;;10.40;99.90;;;;;;5048820;28;20195;-56
2021/09/29 04:18:12;;;;;;;5.47;3.23;;;10.40;99.90;;;;;;5043600;28;20215;-52
2021/09/29 04:20:40;;;;;;;5.97;2.70;;;10.40;99.90;;;;;;5046082;28;20198;-51
2021/09/29 04:23:08;;;;;;;3.37;2.60;;;10.50;99.90;;;;;;5037555;28;20230;-54
2021/09/29 04:25:35;;;;;;;6.00;3.10;;;10.50;99.90;;;;;;5037594;28;20689;-50
2021/09/29 04:28:02;;;;;;;4.43;2.97;;;10.50;99.90;;;;;;5038149;28;20241;-56
2021/09/29 04:30:29;;;;;;;5.60;2.83;;;10.50;99.90;;;;;;5044496;28;20199;-54
2021/09/29 04:32:58;;;;;;;4.37;2.70;;;10.50;99.90;;;;;;5044747;28;20203;-55
2021/09/29 04:35:26;;;;;;;5.33;2.67;;;10.60;99.90;;;;;;5044732;28;20211;-54
2021/09/29 04:37:52;;;;;;;9.43;3.27;;;10.60;99.90;;;;;;5039960;28;20200;-55
2021/09/29 04:40:19;;;;;;;3.33;2.87;;;10.60;99.90;;;;;;5032777;28;20218;-53
2021/09/29 04:42:46;;;;;;;6.23;3.13;;;10.60;99.90;;;;;;5048811;28;20222;-54
2021/09/29 04:45:13;;;;;;;5.80;2.87;;;10.60;99.90;;;;;;5033243;28;20274;-51
2021/09/29 04:47:39;;;;;;;6.37;3.10;;;10.60;99.90;;;;;;5045448;28;20210;-49
2021/09/29 04:50:07;;;;;;;4.03;3.00;;;10.70;99.90;;;;;;5042278;28;20199;-58
2021/09/29 04:52:35;;;;;;;6.90;3.03;;;10.70;99.90;;;;;;5046703;28;20533;-49
2021/09/29 04:55:01;;;;;;;7.97;3.03;;;10.70;99.90;;;;;;5038251;28;20215;-58
2021/09/29 04:57:29;;;;;;;5.33;2.63;;;10.70;99.90;;;;;;5031855;28;20212;-54
2021/09/29 04:59:55;;;;;;;6.50;2.90;;;10.70;99.90;;;;;;5039218;28;20223;-55
2021/09/29 05:02:23;;;;;;;3.57;2.70;;;10.70;99.90;;;;;;5043121;28;20214;-49
2021/09/29 05:04:50;;;;;;;3.97;2.87;;;10.70;99.90;;;;;;5045517;28;20864;-58
2021/09/29 05:07:18;;;;;;;6.03;2.30;;;10.70;99.90;;;;;;5042233;28;20187;-53
2021/09/29 05:09:46;;;;;;;6.20;2.83;;;10.70;99.90;;;;;;5040773;28;20223;-55
2021/09/29 05:12:21;;;;;;;11.80;2.90;;;10.70;99.90;;;;;;5028471;28;20257;-50
2021/09/29 05:14:48;;;;;;;4.47;2.33;;;10.70;99.90;;;;;;5046351;28;20199;-55
2021/09/29 05:17:14;;;;;;;4.07;2.60;;;10.70;99.90;;;;;;5041818;28;20191;-54
2021/09/29 05:19:41;;;;;;;3.30;2.73;;;10.80;99.90;;;;;;5046638;28;20218;-57
2021/09/29 05:22:08;;;;;;;5.43;2.70;;;10.80;99.90;;;;;;5041891;28;20214;-54
2021/09/29 05:24:35;;;;;;;5.40;3.10;;;10.70;99.90;;;;;;5040359;28;20214;-54
2021/09/29 05:27:03;;;;;;;4.07;2.87;;;10.70;99.90;;;;;;5034851;28;20569;-55
2021/09/29 05:29:31;;;;;;;2.70;2.50;;;10.70;99.90;;;;;;5043463;28;20227;-53
2021/09/29 05:31:58;;;;;;;4.77;3.03;;;10.80;99.90;;;;;;5035927;28;20585;-54
2021/09/29 05:34:24;;;;;;;5.50;2.73;;;10.80;99.90;;;;;;5043176;28;20180;-52
2021/09/29 05:36:51;;;;;;;4.23;2.80;;;10.80;99.90;;;;;;5045749;28;20206;-55
2021/09/29 05:39:18;;;;;;;4.30;2.97;;;10.80;99.90;;;;;;5039292;28;20238;-57
2021/09/29 05:41:44;;;;;;;3.97;2.63;;;10.70;99.90;;;;;;5047368;28;20206;-54
2021/09/29 05:44:12;;;;;;;6.93;2.97;;;10.70;99.90;;;;;;5030275;28;20228;-56
2021/09/29 05:46:39;;;;;;;5.97;2.83;;;10.70;99.90;;;;;;5046161;28;20195;-57
2021/09/29 05:49:05;;;;;;;5.07;3.63;;;10.70;99.90;;;;;;5041545;28;20234;-59
2021/09/29 05:51:32;;;;;;;3.30;2.60;;;10.70;99.90;;;;;;5044438;28;20199;-52
2021/09/29 05:53:59;;;;;;;5.43;2.97;;;10.80;99.90;;;;;;5042982;28;20208;-57
2021/09/29 05:56:25;;;;;;;6.23;2.70;;;10.80;99.90;;;;;;5038305;28;21022;-48
2021/09/29 05:58:52;;;;;;;4.90;3.10;;;10.80;99.90;;;;;;5039820;28;20231;-59
2021/09/29 06:01:20;;;;;;;4.80;3.03;;;10.80;99.90;;;;;;5031435;28;20214;-49
2021/09/29 06:03:46;;;;;;;3.57;2.80;;;10.80;99.90;;;;;;5036848;28;20230;-50
2021/09/29 06:06:13;;;;;;;5.60;4.00;;;10.80;99.90;;;;;;5040022;28;20743;-51
2021/09/29 06:08:39;;;;;;;5.03;3.20;;;10.80;99.90;;;;;;5044552;28;20227;-53
2021/09/29 06:11:06;;;;;;;5.50;3.20;;;10.80;99.90;;;;;;5036564;28;20195;-54
2021/09/29 06:13:33;;;;;;;9.73;3.97;;;10.90;99.90;;;;;;5043995;28;20207;-51
2021/09/29 06:16:06;;;;;;;5.13;3.07;;;10.90;99.90;;;;;;5021358;28;20209;-55
2021/09/29 06:18:35;;;;;;;4.53;3.10;;;10.90;99.90;;;;;;5032964;28;20624;-56
2021/09/29 06:21:03;;;;;;;6.47;3.33;;;10.90;99.90;;;;;;5041714;28;20296;-56
2021/09/29 06:23:30;;;;;;;6.83;3.40;;;11.00;99.90;;;;;;5039381;28;20219;-53
2021/09/29 06:25:57;;;;;;;3.53;3.20;;;11.00;99.90;;;;;;5041329;28;20287;-56
2021/09/29 06:28:24;;;;;;;5.93;3.50;;;11.10;99.90;;;;;;5038309;28;20305;-53
2021/09/29 06:30:50;;;;;;;7.73;3.10;;;11.10;99.90;;;;;;5030276;28;20284;-55
2021/09/29 06:33:17;;;;;;;8.10;3.57;;;11.10;99.90;;;;;;5040525;28;20202;-55
2021/09/29 06:35:45;;;;;;;4.93;3.90;;;11.20;99.90;;;;;;5036189;28;20214;-49
2021/09/29 06:38:13;;;;;;;5.87;3.23;;;11.20;99.90;;;;;;5039689;28;20222;-51
2021/09/29 06:40:40;;;;;;;5.07;2.73;;;11.30;99.90;;;;;;5043983;28;20546;-50
2021/09/29 06:43:06;;;;;;;6.47;3.30;;;11.30;99.90;;;;;;5034828;28;20219;-58
2021/09/29 06:45:34;;;;;;;4.50;4.07;;;11.40;99.90;;;;;;5031282;28;20207;-48
2021/09/29 06:48:01;;;;;;;6.57;3.50;;;11.50;99.90;;;;;;5041075;28;20225;-59
2021/09/29 06:50:27;;;;;;;4.07;3.50;;;11.60;99.90;;;;;;5029960;28;20201;-53
2021/09/29 06:52:55;;;;;;;7.73;3.90;;;11.60;99.90;;;;;;5042755;28;20573;-58
2021/09/29 06:55:22;;;;;;;6.97;4.17;;;11.80;99.90;;;;;;5041473;28;20222;-50
2021/09/29 06:57:49;;;;;;;12.03;3.93;;;11.90;99.90;;;;;;5038241;28;20204;-55
2021/09/29 07:00:16;;;;;;;9.90;4.20;;;11.90;99.90;;;;;;5039952;28;20941;-52
2021/09/29 07:02:44;;;;;;;10.03;4.33;;;12.00;99.90;;;;;;5029833;28;20206;-51
2021/09/29 07:05:12;;;;;;;7.87;4.17;;;12.10;99.90;;;;;;5031317;28;20191;-51
2021/09/29 07:07:39;;;;;;;4.27;3.87;;;12.10;99.90;;;;;;5043389;28;20195;-51
2021/09/29 07:10:08;;;;;;;6.50;4.20;;;12.20;99.90;;;;;;5040363;28;20206;-51
2021/09/29 07:12:36;;;;;;;6.73;4.43;;;12.30;99.90;;;;;;5038228;28;20207;-55
2021/09/29 07:15:03;;;;;;;6.83;4.23;;;12.30;99.90;;;;;;5040801;28;20617;-54
2021/09/29 07:17:29;;;;;;;7.30;4.00;;;12.40;99.90;;;;;;5029853;28;20218;-52
2021/09/29 07:19:58;;;;;;;7.03;3.80;;;12.50;99.90;;;;;;5041662;28;20223;-58
2021/09/29 07:22:25;;;;;;;7.97;4.40;;;12.60;99.90;;;;;;5033848;28;20255;-54
2021/09/29 07:24:51;;;;;;;7.17;3.73;;;12.70;99.90;;;;;;5044184;28;20273;-52
2021/09/29 07:27:20;;;;;;;9.60;4.17;;;12.80;99.90;;;;;;5042246;28;20191;-55
2021/09/29 07:29:46;;;;;;;6.47;4.30;;;12.90;99.90;;;;;;5038870;28;20231;-54
2021/09/29 07:32:14;;;;;;;5.87;4.07;;;13.00;99.90;;;;;;5025544;28;21210;-52
2021/09/29 07:34:40;;;;;;;9.60;3.60;;;13.00;99.90;;;;;;5043184;28;20195;-55
2021/09/29 07:37:07;;;;;;;5.43;3.60;;;13.10;99.90;;;;;;5032114;28;20199;-59
2021/09/29 07:39:34;;;;;;;8.83;3.93;;;13.20;99.90;;;;;;5042568;28;20222;-54
2021/09/29 07:42:00;;;;;;;8.70;3.57;;;13.30;99.90;;;;;;5040726;28;20862;-58
2021/09/29 07:44:28;;;;;;;5.63;3.93;;;13.30;99.90;;;;;;5036362;28;20232;-56
2021/09/29 07:46:55;;;;;;;6.83;3.87;;;13.50;99.90;;;;;;5041863;28;20203;-50
2021/09/29 07:49:22;;;;;;;4.83;3.30;;;13.60;99.90;;;;;;5027639;28;20502;-58
2021/09/29 07:51:49;;;;;;;4.67;3.47;;;13.70;99.90;;;;;;5044585;28;20601;-53
2021/09/29 07:54:15;;;;;;;7.03;3.80;;;13.70;99.90;;;;;;5031948;28;20188;-50
2021/09/29 07:56:42;;;;;;;7.27;3.30;;;13.70;99.90;;;;;;5042821;28;20199;-54
2021/09/29 07:59:09;;;;;;;4.90;3.70;;;13.80;99.90;;;;;;5038906;28;20555;-53
2021/09/29 08:01:36;;;;;;;6.93;3.40;;;13.80;99.90;;;;;;5037853;28;20211;-56
2021/09/29 08:04:03;;;;;;;4.90;3.87;;;13.80;99.90;;;;;;5029751;28;20214;-57
2021/09/29 08:06:30;;;;;;;9.03;3.80;;;13.90;99.90;;;;;;5039191;28;20195;-54
2021/09/29 08:08:56;;;;;;;10.57;3.97;;;13.90;99.90;;;;;;5033434;28;20227;-55
2021/09/29 08:11:23;;;;;;;6.13;4.27;;;14.00;99.90;;;;;;5040523;28;20204;-53
2021/09/29 08:13:50;;;;;;;7.70;4.37;;;14.00;99.90;;;;;;5042743;28;20203;-55
2021/09/29 08:16:16;;;;;;;6.23;4.33;;;14.10;99.90;;;;;;5035799;28;20211;-58
2021/09/29 08:18:44;;;;;;;4.73;4.33;;;14.10;99.90;;;;;;5044902;28;20695;-55
2021/09/29 08:21:16;;;;;;;5.80;3.93;;;14.10;99.90;;;;;;5026825;28;20869;-58
2021/09/29 08:23:45;;;;;;;5.93;4.30;;;14.10;99.90;;;;;;5044658;28;20215;-56
2021/09/29 08:26:35;;;;;;;6.27;3.67;;;14.10;99.90;;;;;;5032840;28;20199;-55
2021/09/29 08:29:25;;;;;;;6.07;4.03;;;14.10;99.90;;;;;;5041315;28;20237;-54
2021/09/29 08:32:02;;;;;;;6.23;4.20;;;14.10;99.90;;;;;;5043452;28;20219;-56
2021/09/29 08:34:36;;;;;;;5.10;4.03;;;14.10;99.90;;;;;;5040314;28;20290;-53
2021/09/29 08:37:07;;;;;;;5.70;3.83;;;14.10;99.90;;;;;;5025620;28;20681;-56
2021/09/29 08:39:37;;;;;;;4.33;3.90;;;14.20;99.90;;;;;;5043662;28;20219;-54
2021/09/29 08:42:14;;;;;;;6.83;4.20;;;14.30;99.90;;;;;;5033796;28;20207;-52
2021/09/29 08:44:48;;;;;;;10.67;4.13;;;14.40;99.90;;;;;;5042557;28;20223;-51
2021/09/29 08:47:22;;;;;;;7.93;4.17;;;14.50;99.90;;;;;;5033363;28;20212;-53
2021/09/29 08:50:05;;;;;;;4.77;3.50;;;14.50;99.90;;;;;;5039555;28;20219;-55
2021/09/29 08:52:42;;;;;;;5.77;3.70;;;14.60;99.90;;;;;;5028272;28;20282;-55
2021/09/29 09:15:01;;;;;;;4.30;3.70;;;14.90;99.90;;;;;;5018657;28;20215;-55
2021/09/29 09:17:30;;;;;;;6.73;3.60;;;15.00;99.90;;;;;;5044149;28;20191;-52
2021/09/29 09:20:09;;;;;;;6.17;3.50;;;15.00;99.90;;;;;;5038799;28;20306;-55
2021/09/29 09:22:37;;;;;;;7.33;3.67;;;15.10;99.90;;;;;;5031619;28;20758;-56
2021/09/29 09:25:06;;;;;;;6.83;3.80;;;15.10;99.90;;;;;;5042114;28;20219;-57
2021/09/29 09:27:41;;;;;;;3.70;3.27;;;15.10;99.90;;;;;;5038777;28;20696;-58
2021/09/29 09:30:09;;;;;;;5.20;3.63;;;15.10;99.90;;;;;;5042667;28;20211;-51
2021/09/29 09:32:44;;;;;;;3.97;3.30;;;15.10;99.90;;;;;;5047177;28;20213;-56
2021/09/29 09:35:13;;;;;;;7.73;3.60;;;15.10;99.90;;;;;;5038116;28;20931;-57
2021/09/29 09:37:44;;;;;;;5.57;3.90;;;15.00;99.90;;;;;;5046066;28;20199;-53
2021/09/29 09:40:13;;;;;;;4.47;3.60;;;15.10;99.90;;;;;;5022228;28;20856;-49
2021/09/29 09:42:41;;;;;;;6.77;3.57;;;15.10;99.90;;;;;;5037426;28;20190;-51
2021/09/29 09:45:08;;;;;;;5.27;4.03;;;15.20;99.90;;;;;;5040880;28;20738;-59
2021/09/29 09:47:41;;;;;;;8.57;4.53;;;15.30;99.90;;;;;;5045099;28;20668;-49
2021/09/29 09:50:09;;;;;;;7.30;3.50;;;15.40;99.90;;;;;;5035699;28;20262;-57
2021/09/29 09:52:40;;;;;;;6.30;3.60;;;15.40;99.90;;;;;;5045199;28;20205;-50
2021/09/29 09:55:10;;;;;;;9.83;4.60;;;15.50;99.90;;;;;;5027926;28;20211;-58
2021/09/29 09:57:39;;;;;;;6.13;3.33;;;15.50;99.90;;;;;;5037326;28;20207;-49
2021/09/29 10:00:08;;;;;;;6.00;3.60;;;15.50;99.90;;;;;;5040697;28;20204;-59
2021/09/29 10:02:40;;;;;;;5.73;3.27;;;15.50;99.90;;;;;;5044931;28;20203;-52
2021/09/29 10:05:07;;;;;;;9.33;4.27;;;15.50;99.90;;;;;;5036305;28;20231;-57
2021/09/29 10:07:34;;;;;;;8.73;3.63;;;15.60;99.90;;;;;;5044423;28;20281;-50
2021/09/29 10:10:03;;;;;;;5.90;3.33;;;15.80;99.90;;;;;;5028285;28;20219;-56
2021/09/29 10:12:41;;;;;;;7.13;3.60;;;16.00;99.90;;;;;;5038937;28;20227;-57
2021/09/29 10:22:48;;;;;;;6.40;3.60;;;16.00;99.90;;;;;;5033125;28;20206;-52
2021/09/29 10:23:59;;;;;;;7.50;3.93;;;15.80;99.90;;;;;;5046216;28;20199;-58
2021/09/29 10:26:26;;;;;;;4.63;2.97;;;15.80;99.90;;;;;;5038510;28;20883;-51
2021/09/29 10:29:05;;;;;;;3.70;3.17;;;15.80;99.90;;;;;;5042988;28;20234;-58
2021/09/29 10:31:43;;;;;;;6.40;2.90;;;15.80;99.90;;;;;;5042825;28;20202;-52
2021/09/29 10:34:24;;;;;;;7.40;2.97;;;15.90;99.90;;;;;;5040042;28;20894;-53
2021/09/29 10:37:11;;;;;;;6.90;3.27;;;16.00;99.90;;;;;;5038411;28;20207;-56
2021/09/29 10:42:26;;;;;;;10.70;4.43;;;16.30;99.90;;;;;;5041758;28;20323;-51
2021/09/29 10:48:15;;;;;;;3.90;3.07;;;16.60;99.90;;;;;;5036847;28;20652;-55
2021/09/29 11:07:32;;;;;;;4.00;3.70;;;16.90;99.90;;;;;;5038022;28;20200;-49
2021/09/29 11:27:36;;;;;;;8.27;3.97;;;17.10;99.90;;;;;;4975969;28;20279;-52
2021/09/29 11:30:10;;;;;;;7.30;3.73;;;17.10;99.90;;;;;;5039443;28;21010;-54
2021/09/29 11:32:44;;;;;;;4.87;4.13;;;17.00;99.90;;;;;;5036238;28;20207;-57
2021/09/29 11:35:20;;;;;;;6.20;3.57;;;17.00;99.90;;;;;;5042354;28;20219;-52
2021/09/29 11:38:25;;;;;;;7.67;3.63;;;17.10;99.90;;;;;;5032724;28;20979;-51
2021/09/29 11:49:31;;;;;;;6.27;3.40;;;17.70;99.90;;;;;;5034193;28;20298;-52
2021/09/29 12:08:40;;;;;;;4.67;3.80;;;18.00;99.90;;;;;;5038110;28;20767;-54
2021/09/29 12:11:12;;;;;;;4.00;3.33;;;18.10;99.90;;;;;;5042484;28;20257;-51
2021/09/29 12:13:46;;;;;;;4.30;2.83;;;18.10;99.90;;;;;;5025923;28;20203;-56
2021/09/29 12:16:24;;;;;;;4.43;2.97;;;18.10;99.90;;;;;;5042488;28;20258;-55
2021/09/29 12:18:54;;;;;;;4.93;3.00;;;18.10;99.90;;;;;;5030784;28;20238;-50
2021/09/29 12:21:36;;;;;;;4.47;3.07;;;18.10;99.90;;;;;;5042573;28;20199;-54
2021/09/29 12:24:06;;;;;;;6.13;3.03;;;18.10;99.90;;;;;;5047529;28;20906;-56
2021/09/29 12:26:41;;;;;;;6.87;3.00;;;18.10;99.90;;;;;;5045117;28;20209;-54
2021/09/29 12:29:19;;;;;;;5.80;3.30;;;18.10;99.90;;;;;;5032235;28;20226;-53
2021/09/29 12:31:59;;;;;;;4.93;3.20;;;18.10;99.90;;;;;;5042393;28;20229;-53
2021/09/29 12:34:45;;;;;;;3.93;3.10;;;18.10;99.90;;;;;;5046057;28;20199;-54
2021/09/29 12:37:13;;;;;;;5.83;3.00;;;18.20;99.90;;;;;;5046022;28;20280;-51
2021/09/29 12:39:42;;;;;;;4.10;3.00;;;18.50;99.90;;;;;;5043863;28;20588;-52
2021/09/29 12:42:09;;;;;;;4.43;2.87;;;18.60;99.90;;;;;;5047917;28;20219;-55
2021/09/29 12:44:49;;;;;;;4.43;3.57;;;18.70;99.90;;;;;;5030683;28;20222;-58
2021/09/29 12:47:22;;;;;;;5.47;2.77;;;18.60;99.90;;;;;;5045915;28;20278;-49
2021/09/29 12:49:48;;;;;;;5.47;2.80;;;18.70;99.90;;;;;;5041624;28;20211;-52
2021/09/29 12:52:26;;;;;;;3.50;3.00;;;18.70;99.90;;;;;;5038209;28;20231;-53
2021/09/29 12:54:56;;;;;;;5.90;2.70;;;18.70;99.90;;;;;;5037857;28;20966;-55
2021/09/29 12:57:24;;;;;;;3.37;2.60;;;18.80;99.90;;;;;;5045874;28;20203;-51
2021/09/29 12:59:50;;;;;;;4.90;2.73;;;18.70;99.90;;;;;;5028275;28;20221;-51
2021/09/29 13:02:17;;;;;;;4.27;3.00;;;18.60;99.90;;;;;;5045613;28;20211;-53
2021/09/29 13:04:43;;;;;;;4.17;2.23;;;18.40;99.90;;;;;;5041823;28;20211;-54
2021/09/29 13:07:10;;;;;;;6.47;3.23;;;18.30;99.90;;;;;;5038128;28;20205;-50
2021/09/29 13:09:37;;;;;;;8.70;3.60;;;18.20;99.90;;;;;;5043086;28;20550;-54
2021/09/29 13:12:05;;;;;;;5.30;3.40;;;18.10;99.90;;;;;;5044449;28;20206;-55
2021/09/29 13:14:32;;;;;;;3.77;3.10;;;18.00;99.90;;;;;;5030440;28;20214;-55
2021/09/29 13:16:59;;;;;;;4.67;3.20;;;17.90;99.90;;;;;;5043031;28;20270;-54
2021/09/29 13:19:28;;;;;;;4.90;2.90;;;17.80;99.90;;;;;;5045001;28;20299;-56
2021/09/29 13:21:56;;;;;;;4.90;3.13;;;17.80;99.90;;;;;;5043393;28;20195;-56
2021/09/29 13:24:29;;;;;;;6.10;3.17;;;17.70;99.90;;;;;;5039302;28;20875;-58
2021/09/29 13:27:20;;;;;;;4.27;3.33;;;17.70;99.90;;;;;;5044503;28;20195;-57
2021/09/29 13:36:33;;;;;;;5.70;2.97;;;17.30;99.90;;;;;;5040460;28;20202;-54
2021/09/29 13:38:16;;;;;;;3.57;3.27;;;17.30;99.90;;;;;;5037299;28;20227;-55
2021/09/29 13:40:44;;;;;;;5.73;3.20;;;17.20;99.90;;;;;;5041232;28;20206;-56
2021/09/29 13:43:11;;;;;;;5.27;3.70;;;17.20;99.90;;;;;;5045082;28;20195;-50
2021/09/29 13:45:39;;;;;;;7.17;4.40;;;17.00;99.90;;;;;;5028040;28;20215;-56
2021/09/29 13:48:05;;;;;;;4.83;3.67;;;16.90;99.90;;;;;;5043826;28;20219;-52
2021/09/29 13:50:32;;;;;;;4.50;4.03;;;16.80;99.90;;;;;;5042867;28;20202;-55
2021/09/29 13:53:00;;;;;;;7.47;4.90;;;16.50;99.90;;;;;;5031461;28;20210;-53
2021/09/29 13:55:29;;;;;;;6.43;5.43;;;16.30;99.90;;;;;;5044198;28;20196;-52
2021/09/29 13:58:02;;;;;;;5.93;5.27;;;16.20;99.90;;;;;;5035953;28;20893;-51
2021/09/29 14:00:35;;;;;;;5.27;4.43;;;16.30;99.90;;;;;;5039850;28;20678;-56
2021/09/29 14:30:43;;;;;;;4.53;2.80;;;16.20;99.90;;;;;;5041067;28;20549;-55
2021/09/29 14:33:18;;;;;;;3.97;2.70;;;16.20;99.90;;;;;;5022411;28;20235;-54
2021/09/29 14:35:47;;;;;;;4.13;2.30;;;16.10;99.90;;;;;;5041391;28;20950;-57
2021/09/29 14:38:13;;;;;;;4.30;2.20;;;16.10;99.90;;;;;;5046158;28;20221;-58
2021/09/29 14:40:40;;;;;;;3.43;2.13;;;16.00;99.90;;;;;;5035367;28;20206;-53
2021/09/29 14:43:07;;;;;;;4.10;2.33;;;16.00;99.90;;;;;;5044175;28;20191;-49
2021/09/29 14:45:35;;;;;;;8.10;2.90;;;15.90;99.90;;;;;;5040918;28;20677;-53
2021/09/29 14:48:02;;;;;;;4.03;2.27;;;15.80;99.90;;;;;;5029652;28;20230;-55
2021/09/29 14:50:28;;;;;;;2.57;1.93;;;15.80;99.90;;;;;;5042792;28;20214;-55
2021/09/29 14:52:57;;;;;;;4.53;2.20;;;15.80;99.90;;;;;;5041473;28;20199;-55
2021/09/29 14:55:27;;;;;;;7.17;2.77;;;15.90;99.90;;;;;;5045687;28;20197;-53
2021/09/29 14:57:53;;;;;;;3.90;2.53;;;15.90;99.90;;;;;;5035451;28;20206;-51
2021/09/29 15:00:20;;;;;;;4.00;1.80;;;15.90;99.90;;;;;;5043788;28;20202;-56